Terminal Aerodrome Forecast
Issued by NWS

Home | Current Version | Previous Version | Text Only | Print | Product List | Glossary On
Versions: 1 2 3 4 5 6 7 8 9 10 11 12 13
842
FTUS46 KSEW 251120
TAFOLM
TAF
KOLM 251120Z 2512/2612 04004KT P6SM SCT200
     FM260300 24005KT P6SM SCT200
     FM261100 20005KT P6SM BKN012 OVC200=

USA.gov is the U.S. government's official web portal to all federal, state and local government web resources and services.